Haugen, Minnesota
Current Conditions -  °F | °C
As of 8:27 AM on Friday 28 Nov 2014 (Local Time) from KHZX Reporting Station
Overcast Overcast  
Wind Chill: 10°   Ceiling: 1100
Heat Index: 10°   Visibility: 4mi
Dew Point:   Wind: 3mph
Humidity: 92%   Direction: 120°ESE
Pressure: 30.01"   Gusts: NA
Location:  46.6404°N, 93.1222°W
Report Text: KHZX 281427Z AUTO 12003KT 4SM OVC011 M12/M13 A3001 RMK AO2
Loading
Personal Weather Stations






























Interactive Weather Map New forecast layout! Learn more

10-Day Weather Forecast

Advertisements
Track Severe Weather on mobile